Time;durP1;ratioP1;P1;durP2;ratioP2;P2;SDS_P1;SDS_P2;PMS_P1;PMS_P2;Temp;Humidity;BMP_temperature;BMP_pressure;BME280_temperature;BME280_humidity;BME280_pressure;Samples;Min_cycle;Max_cycle;Signal;HPM_P1;HPM_P2
2022/03/29 00:01:00;;;;;;;;;36.33;32.00;;;;;14.65;37.05;99246.66;5034471;28;45299;-72
2022/03/29 00:03:25;;;;;;;;;31.67;30.33;;;;;14.61;37.16;99240.66;5034707;28;45442;-72
2022/03/29 00:05:51;;;;;;;;;25.67;23.33;;;;;14.60;36.96;99246.06;5034912;28;45396;-72
2022/03/29 00:08:17;;;;;;;;;33.33;29.33;;;;;14.59;36.94;99239.03;5034498;28;45385;-72
2022/03/29 00:10:44;;;;;;;;;30.33;29.00;;;;;14.58;36.88;99234.66;5027203;28;45341;-72
2022/03/29 00:13:10;;;;;;;;;39.33;32.33;;;;;14.54;37.08;99227.84;5034563;28;45361;-72
2022/03/29 00:15:36;;;;;;;;;30.00;28.00;;;;;14.51;37.08;99225.34;5027721;28;46831;-72
2022/03/29 00:18:01;;;;;;;;;38.67;34.00;;;;;14.50;36.97;99227.13;5035084;28;45611;-72
2022/03/29 00:20:27;;;;;;;;;40.00;33.67;;;;;14.50;37.06;99220.97;5034701;28;45484;-72
2022/03/29 00:22:52;;;;;;;;;37.00;32.67;;;;;14.50;37.10;99216.53;5028319;28;45418;-72
2022/03/29 00:25:18;;;;;;;;;33.00;31.00;;;;;14.49;37.14;99209.50;5032316;28;45960;-72
2022/03/29 00:27:44;;;;;;;;;37.33;31.00;;;;;14.50;37.03;99205.91;5032313;28;45423;-72
2022/03/29 00:30:11;;;;;;;;;38.33;32.00;;;;;14.48;37.17;99194.53;5062194;28;45412;-72
2022/03/29 00:32:39;;;;;;;;;32.33;29.00;;;;;14.47;37.38;99198.13;5032145;28;45185;-72
2022/03/29 00:35:06;;;;;;;;;31.67;30.00;;;;;14.45;37.42;99192.03;5028299;28;45543;-72
2022/03/29 00:37:32;;;;;;;;;27.67;27.00;;;;;14.45;37.29;99188.53;5036100;28;45429;-72
2022/03/29 00:39:57;;;;;;;;;30.00;29.67;;;;;14.43;37.20;99185.09;5057095;28;45432;-72
2022/03/29 00:42:23;;;;;;;;;34.00;31.00;;;;;14.43;37.24;99182.44;5032829;28;45489;-72
2022/03/29 00:44:48;;;;;;;;;32.00;29.33;;;;;14.42;37.04;99173.63;5029229;28;46283;-72
2022/03/29 00:47:14;;;;;;;;;30.67;28.00;;;;;14.41;37.45;99171.91;5032173;28;45848;-71
2022/03/29 00:49:39;;;;;;;;;31.33;28.33;;;;;14.41;37.46;99168.44;5034230;28;45365;-72
2022/03/29 00:52:05;;;;;;;;;36.33;32.00;;;;;14.41;37.46;99171.91;5034074;28;46193;-72
2022/03/29 00:54:34;;;;;;;;;30.33;29.67;;;;;14.38;37.41;99164.13;5032507;28;46145;-72
2022/03/29 00:57:01;;;;;;;;;31.00;28.33;;;;;14.37;37.75;99165.06;5034392;28;45455;-72
2022/03/29 00:59:27;;;;;;;;;35.67;31.33;;;;;14.36;37.73;99159.84;5036654;28;45468;-72
2022/03/29 01:01:54;;;;;;;;;28.33;28.33;;;;;14.32;37.70;99153.84;5037549;28;45382;-73
2022/03/29 01:04:21;;;;;;;;;32.67;29.67;;;;;14.28;37.94;99150.50;5033920;28;45535;-72
2022/03/29 01:06:47;;;;;;;;;31.00;29.00;;;;;14.27;38.02;99146.13;5037580;28;45322;-72
2022/03/29 01:09:12;;;;;;;;;37.67;32.33;;;;;14.26;38.33;99136.47;5037700;28;45306;-72
2022/03/29 01:11:38;;;;;;;;;33.67;28.00;;;;;14.26;38.32;99140.91;5037335;28;45566;-72
2022/03/29 01:14:05;;;;;;;;;22.67;19.67;;;;;14.23;38.34;99139.31;5038128;28;46265;-72
2022/03/29 01:19:17;;;;;;;;;27.00;26.00;;;;;14.21;38.22;99124.41;5036207;28;45413;-72
2022/03/29 01:22:07;;;;;;;;;28.00;27.33;;;;;14.21;38.00;99119.97;5037154;28;45521;-72
2022/03/29 01:24:34;;;;;;;;;29.00;26.33;;;;;14.19;38.19;99118.34;5033728;28;45436;-72
2022/03/29 01:27:04;;;;;;;;;30.67;27.33;;;;;14.17;38.27;99121.06;5037506;28;45431;-72
2022/03/29 01:29:31;;;;;;;;;23.67;23.00;;;;;14.15;38.31;99115.00;5033112;28;45429;-72
2022/03/29 01:32:02;;;;;;;;;28.00;27.33;;;;;14.15;38.35;99103.53;5037390;28;45322;-72
2022/03/29 01:34:28;;;;;;;;;29.00;26.67;;;;;14.12;38.26;99101.91;5034168;28;46728;-72
2022/03/29 01:36:54;;;;;;;;;34.67;29.00;;;;;14.11;38.55;99097.53;5037136;28;45358;-72
2022/03/29 01:39:20;;;;;;;;;29.33;28.33;;;;;14.08;38.59;99095.03;5039052;28;45490;-72
2022/03/29 01:41:45;;;;;;;;;32.00;27.00;;;;;14.07;38.82;99092.50;5037140;28;45661;-72
2022/03/29 01:44:11;;;;;;;;;30.00;28.00;;;;;14.06;38.82;99085.50;5036016;28;45460;-71
2022/03/29 01:46:37;;;;;;;;;30.33;26.67;;;;;14.02;38.91;99082.13;5037206;28;45273;-72
2022/03/29 01:49:04;;;;;;;;;29.33;28.33;;;;;14.00;39.01;99085.81;5040996;28;45393;-72
2022/03/29 01:51:30;;;;;;;;;26.00;25.67;;;;;13.97;38.75;99084.19;5033504;28;45620;-72
2022/03/29 01:53:57;;;;;;;;;31.67;28.67;;;;;13.93;39.23;99072.03;5034364;28;45471;-72
2022/03/29 01:56:26;;;;;;;;;26.67;25.00;;;;;13.90;39.07;99067.78;5036813;28;45251;-72
2022/03/29 01:58:52;;;;;;;;;28.00;27.00;;;;;13.88;38.69;99068.78;5035897;28;45297;-72
2022/03/29 02:01:17;;;;;;;;;31.00;29.33;;;;;13.83;39.28;99055.78;5036130;28;45356;-72
2022/03/29 02:03:43;;;;;;;;;33.33;29.00;;;;;13.80;39.31;99055.94;5033418;28;47123;-72
2022/03/29 02:06:08;;;;;;;;;33.33;30.67;;;;;13.74;39.63;99064.22;5036673;28;45361;-72
2022/03/29 02:08:34;;;;;;;;;29.67;26.33;;;;;13.72;39.78;99054.66;5037691;28;45376;-72
2022/03/29 02:11:00;;;;;;;;;30.67;29.00;;;;;13.67;39.99;99049.59;5035499;28;45462;-72
2022/03/29 02:13:26;;;;;;;;;29.67;27.33;;;;;13.63;39.77;99046.25;5034788;28;46193;-72
2022/03/29 02:15:51;;;;;;;;;32.67;30.00;;;;;13.59;39.59;99051.78;5068684;28;45356;-72
2022/03/29 02:18:17;;;;;;;;;26.33;24.67;;;;;13.56;39.92;99059.94;5033117;28;45559;-72
2022/03/29 02:20:42;;;;;;;;;29.67;28.00;;;;;13.50;40.32;99063.75;5035376;28;45415;-72
2022/03/29 02:23:09;;;;;;;;;29.67;27.67;;;;;13.46;40.39;99063.97;5034539;28;46709;-72
2022/03/29 02:25:36;;;;;;;;;23.67;20.67;;;;;13.41;40.60;99055.41;5036455;28;45334;-72
2022/03/29 02:28:02;;;;;;;;;29.67;25.67;;;;;13.38;40.60;99058.25;5036038;28;45441;-72
2022/03/29 02:30:29;;;;;;;;;31.33;27.67;;;;;13.35;40.74;99059.25;5065362;28;45518;-72
2022/03/29 02:32:55;;;;;;;;;29.33;27.33;;;;;13.30;40.90;99052.47;5032571;28;45459;-72
2022/03/29 02:35:20;;;;;;;;;31.67;29.67;;;;;13.25;40.95;99056.22;5036045;28;45402;-72
2022/03/29 02:37:46;;;;;;;;;36.67;32.33;;;;;13.18;42.07;99051.34;5033485;28;45365;-72
2022/03/29 02:40:13;;;;;;;;;28.33;28.00;;;;;13.09;42.01;99049.97;5031079;28;45407;-72
2022/03/29 02:42:47;;;;;;;;;30.33;30.00;;;;;13.02;41.77;99056.53;5037089;28;47748;-72
2022/03/29 02:45:15;;;;;;;;;30.00;27.33;;;;;12.97;41.49;99060.34;5039963;28;45571;-78
2022/03/29 02:47:41;;;;;;;;;36.33;31.33;;;;;12.90;41.79;99057.16;5036536;28;45367;-78
2022/03/29 02:50:07;;;;;;;;;32.00;28.00;;;;;12.79;42.06;99047.09;5036112;28;45268;-79
2022/03/29 02:52:33;;;;;;;;;34.33;31.00;;;;;12.69;41.61;99059.09;5036166;28;45412;-78
2022/03/29 02:54:58;;;;;;;;;31.33;28.67;;;;;12.59;42.60;99061.31;5035789;28;45367;-78
2022/03/29 02:57:24;;;;;;;;;29.00;26.67;;;;;12.49;43.14;99060.06;5036412;28;45373;-78
2022/03/29 02:59:49;;;;;;;;;34.00;30.00;;;;;12.42;42.54;99055.13;5039389;28;45588;-79
2022/03/29 03:02:14;;;;;;;;;32.67;27.67;;;;;12.36;42.21;99053.66;5035845;28;46210;-78
2022/03/29 03:04:40;;;;;;;;;30.67;28.00;;;;;12.33;42.90;99045.88;5039363;28;45365;-72
2022/03/29 03:07:05;;;;;;;;;29.67;27.00;;;;;12.30;42.63;99047.81;5034718;28;45416;-72
2022/03/29 03:09:31;;;;;;;;;35.33;29.00;;;;;12.30;42.98;99053.94;5032201;28;45612;-72
2022/03/29 03:11:56;;;;;;;;;30.00;28.00;;;;;12.29;43.35;99059.31;5035698;28;45383;-72
2022/03/29 03:14:22;;;;;;;;;33.67;31.67;;;;;12.26;43.04;99055.00;5049355;28;45342;-72
2022/03/29 03:16:47;;;;;;;;;28.67;24.67;;;;;12.23;43.05;99061.28;5035836;28;45295;-72
2022/03/29 03:19:13;;;;;;;;;35.33;31.00;;;;;12.18;42.64;99058.03;5024608;28;45608;-72
2022/03/29 03:21:38;;;;;;;;;34.33;29.33;;;;;12.13;43.10;99049.47;5033987;28;45788;-72
2022/03/29 03:24:04;;;;;;;;;24.00;24.00;;;;;12.10;43.45;99049.59;5035344;28;45544;-72
2022/03/29 03:26:30;;;;;;;;;29.33;28.67;;;;;12.10;43.61;99049.59;5035617;28;45453;-72
2022/03/29 03:28:55;;;;;;;;;24.67;24.00;;;;;12.08;44.06;99048.81;5030518;28;45515;-72
2022/03/29 03:31:20;;;;;;;;;32.33;31.33;;;;;12.06;44.34;99044.56;5035663;28;45373;-72
2022/03/29 03:33:46;;;;;;;;;34.67;30.33;;;;;11.99;44.79;99054.53;5044030;28;45386;-72
2022/03/29 03:36:11;;;;;;;;;27.00;23.00;;;;;11.93;44.29;99053.97;5035403;28;45472;-72
2022/03/29 03:38:36;;;;;;;;;30.00;27.33;;;;;11.89;44.24;99061.19;5026791;28;45395;-72
2022/03/29 03:41:02;;;;;;;;;25.33;25.00;;;;;11.90;43.98;99054.97;5034709;28;45399;-72
2022/03/29 03:43:27;;;;;;;;;33.67;29.33;;;;;11.90;44.33;99046.22;5033515;28;45552;-72
2022/03/29 03:45:53;;;;;;;;;28.00;25.67;;;;;11.88;44.72;99051.56;5035626;28;45365;-72
2022/03/29 03:48:18;;;;;;;;;33.33;31.33;;;;;11.90;45.49;99038.28;5034622;28;45287;-72
2022/03/29 03:50:44;;;;;;;;;33.33;27.67;;;;;11.90;45.32;99041.75;5034894;28;45635;-72
2022/03/29 03:53:09;;;;;;;;;40.00;32.00;;;;;11.90;45.27;99038.28;5036976;28;45454;-72
2022/03/29 03:55:35;;;;;;;;;36.67;31.33;;;;;11.90;44.87;99031.19;5035221;28;45370;-72
2022/03/29 03:58:00;;;;;;;;;30.33;28.33;;;;;11.88;45.52;99038.34;5032604;28;45472;-72
2022/03/29 04:00:26;;;;;;;;;37.67;33.00;;;;;11.85;45.30;99043.78;5034733;28;45431;-72
2022/03/29 04:02:51;;;;;;;;;35.33;31.33;;;;;11.80;44.63;99033.41;5051806;28;45507;-72
2022/03/29 04:05:17;;;;;;;;;37.00;31.33;;;;;11.76;45.54;99036.25;5034216;28;45500;-72
2022/03/29 04:07:43;;;;;;;;;30.00;29.00;;;;;11.73;45.64;99031.94;5034699;28;45595;-72
2022/03/29 04:10:09;;;;;;;;;31.33;29.00;;;;;11.70;45.58;99032.09;5034557;28;45403;-73
2022/03/29 04:12:35;;;;;;;;;32.33;31.00;;;;;11.68;45.35;99022.53;5034047;28;45572;-72
2022/03/29 04:15:01;;;;;;;;;30.67;28.00;;;;;11.65;46.05;99012.97;5034746;28;45365;-72
2022/03/29 04:17:27;;;;;;;;;38.00;31.33;;;;;11.65;45.92;99020.88;5034389;28;45389;-72
2022/03/29 04:19:52;;;;;;;;;30.00;26.67;;;;;11.64;46.08;99020.94;5034301;28;45360;-72
2022/03/29 04:22:18;;;;;;;;;36.00;29.67;;;;;11.64;46.19;99010.38;5034188;28;45389;-72
2022/03/29 04:24:47;;;;;;;;;29.67;26.33;;;;;11.64;46.29;99007.75;5021312;28;45426;-72
2022/03/29 04:27:13;;;;;;;;;35.00;31.33;;;;;11.63;46.31;98998.97;5034258;28;45440;-72
2022/03/29 04:29:38;;;;;;;;;30.00;28.33;;;;;11.63;46.34;99006.03;5026881;28;45487;-72
2022/03/29 04:32:04;;;;;;;;;45.33;35.33;;;;;11.63;46.39;99006.03;5034301;28;45397;-72
2022/03/29 04:34:30;;;;;;;;;39.33;35.00;;;;;11.63;46.58;99001.63;5036991;28;45376;-72
2022/03/29 04:36:58;;;;;;;;;39.00;34.67;;;;;11.62;46.51;99002.53;5037878;28;45484;-72
2022/03/29 04:39:25;;;;;;;;;43.00;34.33;;;;;11.61;46.62;99006.09;5046537;28;46510;-72
2022/03/29 04:41:51;;;;;;;;;38.33;35.00;;;;;11.58;46.58;99003.59;5035997;28;45377;-72
2022/03/29 04:44:17;;;;;;;;;37.33;33.33;;;;;11.58;46.46;99000.09;5032780;28;45373;-72
2022/03/29 04:46:42;;;;;;;;;38.00;34.67;;;;;11.56;46.52;99000.19;5037479;28;45436;-72
2022/03/29 04:49:08;;;;;;;;;49.67;33.67;;;;;11.54;47.23;99004.69;5032956;28;46181;-72
2022/03/29 04:51:34;;;;;;;;;39.33;33.00;;;;;11.52;47.39;98999.47;5069517;28;45436;-72
2022/03/29 04:54:01;;;;;;;;;34.00;32.33;;;;;11.48;46.86;99000.53;5037374;28;45553;-72
2022/03/29 04:56:27;;;;;;;;;34.67;32.33;;;;;11.45;46.82;99002.44;5035926;28;45768;-72
2022/03/29 04:58:52;;;;;;;;;35.33;32.67;;;;;11.41;46.98;98996.44;5031445;28;46444;-72
2022/03/29 05:01:18;;;;;;;;;28.33;28.33;;;;;11.37;45.71;99002.81;5036277;28;45349;-72
2022/03/29 05:03:43;;;;;;;;;26.67;23.67;;;;;11.31;46.29;98991.66;5034022;28;45423;-72
2022/03/29 05:06:09;;;;;;;;;34.67;30.33;;;;;11.28;46.54;98997.94;5037352;28;45367;-72
2022/03/29 05:08:34;;;;;;;;;38.33;32.67;;;;;11.27;46.87;99000.63;5034529;28;45462;-72
2022/03/29 05:11:00;;;;;;;;;40.33;34.00;;;;;11.24;47.16;99006.06;5030777;28;45500;-72
2022/03/29 05:13:27;;;;;;;;;34.00;31.33;;;;;11.19;47.75;99001.00;5036660;28;45456;-72
2022/03/29 05:15:53;;;;;;;;;34.00;29.00;;;;;11.13;47.59;99006.53;5035630;28;45440;-72
2022/03/29 05:18:18;;;;;;;;;36.00;31.00;;;;;11.10;47.47;99006.66;5036545;28;46140;-71
2022/03/29 05:20:43;;;;;;;;;35.00;32.00;;;;;11.05;47.28;99006.03;5036529;28;45441;-73
2022/03/29 05:23:09;;;;;;;;;36.33;31.00;;;;;11.02;47.25;99003.53;5031672;28;45465;-73
2022/03/29 05:25:35;;;;;;;;;33.00;31.00;;;;;11.03;47.31;99005.25;5033080;28;45457;-73
2022/03/29 05:28:02;;;;;;;;;40.00;34.00;;;;;11.02;48.02;99001.75;5033799;28;46547;-73
2022/03/29 05:30:28;;;;;;;;;33.33;29.00;;;;;11.02;48.77;98998.25;5032197;28;45386;-73
2022/03/29 05:33:00;;;;;;;;;38.33;34.67;;;;;11.01;48.44;98999.16;5032554;28;45381;-73
2022/03/29 05:35:29;;;;;;;;;38.67;34.33;;;;;11.02;48.22;99003.53;5028909;28;45330;-73
2022/03/29 05:37:57;;;;;;;;;40.00;35.00;;;;;11.06;48.23;99005.13;5035956;28;46186;-73
2022/03/29 05:40:24;;;;;;;;;42.33;37.67;;;;;11.08;48.02;99008.50;5031810;28;45396;-73
2022/03/29 05:42:50;;;;;;;;;30.67;30.00;;;;;11.12;47.50;99008.31;5049692;28;45440;-73
2022/03/29 05:45:16;;;;;;;;;37.00;32.67;;;;;11.17;47.79;99008.13;5034922;28;45555;-73
2022/03/29 05:50:27;;;;;;;;;42.67;35.67;;;;;11.23;48.03;99004.38;5031080;28;45452;-73
2022/03/29 05:52:53;;;;;;;;;33.67;31.33;;;;;11.23;47.63;99001.72;5031694;28;45417;-73
2022/03/29 05:55:19;;;;;;;;;39.00;33.67;;;;;11.24;48.03;99009.53;5034393;28;45351;-73
2022/03/29 05:57:44;;;;;;;;;39.33;35.33;;;;;11.25;48.25;99015.69;5034012;28;46111;-73
2022/03/29 06:00:10;;;;;;;;;36.33;34.67;;;;;11.26;48.27;99010.34;5035912;28;45362;-69
2022/03/29 06:02:39;;;;;;;;;32.33;31.33;;;;;11.33;48.32;99000.38;5033349;28;45457;-65
2022/03/29 06:05:07;;;;;;;;;36.67;32.33;;;;;11.41;47.87;99001.72;5035282;28;45522;-65
2022/03/29 06:07:32;;;;;;;;;33.67;30.00;;;;;11.48;47.87;98994.41;5035104;28;45449;-65
2022/03/29 06:09:58;;;;;;;;;39.00;31.67;;;;;11.58;47.59;99005.38;5035381;28;45370;-65
2022/03/29 06:12:24;;;;;;;;;36.33;32.33;;;;;11.64;47.63;99002.47;5035573;28;45498;-66
2022/03/29 06:14:49;;;;;;;;;42.33;35.33;;;;;11.70;47.43;98997.78;5027138;28;45457;-66
2022/03/29 06:17:15;;;;;;;;;38.67;34.67;;;;;11.77;47.72;99007.13;5035615;28;46240;-65
2022/03/29 06:19:42;;;;;;;;;41.00;34.67;;;;;11.84;47.67;99008.56;5025060;28;45386;-65
2022/03/29 06:22:07;;;;;;;;;46.00;36.33;;;;;11.90;47.66;98996.84;5068172;28;45534;-66
2022/03/29 06:24:33;;;;;;;;;41.33;35.33;;;;;11.95;47.33;99000.13;5032514;28;45443;-65
2022/03/29 06:26:59;;;;;;;;;42.67;37.00;;;;;12.00;47.37;99003.41;5035877;28;45480;-65
2022/03/29 06:29:24;;;;;;;;;47.33;37.33;;;;;12.10;47.46;99011.75;5027151;28;45380;-64
2022/03/29 06:31:51;;;;;;;;;42.33;37.67;;;;;12.18;47.12;99001.69;5034931;28;45355;-65
2022/03/29 06:34:16;;;;;;;;;34.33;31.67;;;;;12.26;46.77;99006.59;5033314;28;45563;-65
2022/03/29 06:36:42;;;;;;;;;47.67;40.00;;;;;12.31;46.42;98991.38;5035426;28;46164;-65
2022/03/29 06:39:08;;;;;;;;;39.33;33.33;;;;;12.36;45.95;98998.16;5031862;28;45184;-65
2022/03/29 06:41:34;;;;;;;;;37.67;32.67;;;;;12.43;46.07;99001.31;5032729;28;45463;-65
2022/03/29 06:44:00;;;;;;;;;43.33;34.67;;;;;12.50;45.87;98995.66;5029579;28;45585;-64
2022/03/29 06:46:26;;;;;;;;;38.67;33.67;;;;;12.57;45.53;98983.84;5031626;28;45537;-64
2022/03/29 06:48:54;;;;;;;;;42.00;35.67;;;;;12.64;45.55;98981.75;5030079;28;45494;-64
2022/03/29 06:51:19;;;;;;;;;40.00;31.33;;;;;12.71;45.65;98984.94;5033438;28;45472;-64
2022/03/29 06:53:45;;;;;;;;;42.67;35.67;;;;;12.76;45.52;98986.41;5048319;28;45716;-64
2022/03/29 06:56:11;;;;;;;;;42.00;36.00;;;;;12.81;45.66;98983.53;5033092;28;46492;-64
2022/03/29 06:58:37;;;;;;;;;37.00;32.67;;;;;12.87;45.29;98978.78;5033022;28;45358;-64
2022/03/29 07:01:03;;;;;;;;;44.00;36.00;;;;;12.89;45.55;98981.38;5034916;28;45385;-64
2022/03/29 07:03:34;;;;;;;;;43.67;34.33;;;;;12.94;45.72;98976.66;5028781;28;45492;-64
2022/03/29 07:06:00;;;;;;;;;43.67;35.33;;;;;13.02;45.41;98977.13;5034621;28;45437;-64
2022/03/29 07:08:26;;;;;;;;;40.33;33.00;;;;;13.10;44.84;98969.63;5034224;28;45457;-64
2022/03/29 07:13:37;;;;;;;;;37.00;34.00;;;;;13.37;44.07;98966.50;5030115;28;45282;-64
2022/03/29 07:16:03;;;;;;;;;37.33;33.00;;;;;13.45;43.92;98959.84;5031395;28;45501;-64
2022/03/29 07:18:28;;;;;;;;;40.00;35.00;;;;;13.53;43.75;98962.09;5028997;28;45474;-64
2022/03/29 07:20:54;;;;;;;;;50.67;41.67;;;;;13.58;43.43;98960.88;5031425;28;45358;-65
2022/03/29 07:23:19;;;;;;;;;52.33;39.67;;;;;13.66;43.49;98960.47;5033721;28;45313;-64
2022/03/29 07:25:45;;;;;;;;;40.67;34.67;;;;;13.78;43.65;98956.28;5067400;28;45301;-64
2022/03/29 07:28:11;;;;;;;;;45.33;37.67;;;;;13.87;43.73;98955.78;5031359;28;45491;-65
2022/03/29 07:30:41;;;;;;;;;42.67;36.00;;;;;13.95;43.23;98958.84;5034071;28;45401;-64
2022/03/29 07:33:07;;;;;;;;;42.67;34.67;;;;;13.98;42.94;98953.38;5033262;28;45362;-64
2022/03/29 07:35:34;;;;;;;;;40.00;33.33;;;;;14.01;43.23;98949.69;5033513;28;45367;-63
2022/03/29 07:37:59;;;;;;;;;39.00;34.00;;;;;14.03;42.62;98943.38;5030953;28;45383;-63
2022/03/29 07:40:28;;;;;;;;;44.00;33.33;;;;;14.08;42.70;98943.06;5034930;28;45362;-64
2022/03/29 07:42:54;;;;;;;;;39.33;33.00;;;;;14.17;42.23;98953.19;5032068;28;45503;-64
2022/03/29 07:45:20;;;;;;;;;36.67;32.33;;;;;14.26;42.11;98952.63;5030490;28;45455;-66
2022/03/29 07:47:51;;;;;;;;;41.00;31.33;;;;;14.31;41.77;98951.44;5033235;28;45541;-63
2022/03/29 07:50:17;;;;;;;;;37.67;32.67;;;;;14.41;41.85;98941.16;5031983;28;45458;-64
2022/03/29 07:52:43;;;;;;;;;34.00;32.00;;;;;14.48;41.73;98939.03;5032232;28;45539;-64
2022/03/29 07:55:10;;;;;;;;;40.00;32.67;;;;;14.57;41.94;98935.84;5031098;28;45381;-64
2022/03/29 07:57:37;;;;;;;;;36.67;31.00;;;;;14.68;41.12;98927.22;5033429;28;45397;-65
2022/03/29 08:00:31;;;;;;;;;33.33;30.00;;;;;14.73;41.31;98928.69;5033088;28;45469;-64
2022/03/29 08:02:50;;;;;;;;;37.67;32.00;;;;;14.81;40.75;98931.69;5031862;28;45502;-63
2022/03/29 08:05:15;;;;;;;;;39.67;33.33;;;;;14.87;40.46;98923.38;5024857;28;47186;-64
2022/03/29 08:07:41;;;;;;;;;35.00;31.00;;;;;14.96;40.43;98928.13;5046823;28;45542;-64
2022/03/29 08:10:07;;;;;;;;;33.67;31.67;;;;;15.05;40.91;98923.22;5034492;28;45473;-64
2022/03/29 08:12:33;;;;;;;;;34.33;31.67;;;;;15.14;40.45;98927.94;5048746;28;45633;-64
2022/03/29 08:14:59;;;;;;;;;37.00;32.33;;;;;15.18;40.10;98927.66;5027033;28;46157;-64
2022/03/29 08:17:24;;;;;;;;;38.67;33.33;;;;;15.22;40.21;98931.00;5034367;28;45519;-64
2022/03/29 08:19:50;;;;;;;;;39.33;32.33;;;;;15.29;40.40;98924.31;5030543;28;45415;-63
2022/03/29 08:22:15;;;;;;;;;44.00;34.33;;;;;15.40;40.34;98918.38;5033759;28;45460;-64
2022/03/29 08:24:40;;;;;;;;;39.67;32.67;;;;;15.53;40.30;98916.63;5026436;28;45337;-64
2022/03/29 08:27:06;;;;;;;;;38.67;32.67;;;;;15.65;39.78;98915.88;5033873;28;45364;-64
2022/03/29 08:29:31;;;;;;;;;41.00;34.67;;;;;15.73;39.79;98907.41;5027859;28;45582;-63
2022/03/29 08:31:57;;;;;;;;;41.67;34.67;;;;;15.78;39.57;98907.97;5049270;28;45375;-64
2022/03/29 08:34:22;;;;;;;;;39.33;34.67;;;;;15.86;39.49;98903.00;5026227;28;45574;-64
2022/03/29 08:36:49;;;;;;;;;36.00;32.67;;;;;15.91;39.36;98901.75;5033778;28;45518;-64
2022/03/29 08:39:15;;;;;;;;;42.67;34.67;;;;;15.98;39.36;98900.41;5024241;28;45363;-64
2022/03/29 08:41:53;;;;;;;;;42.67;34.67;;;;;16.07;39.35;98904.28;5033810;28;45453;-64
2022/03/29 08:44:19;;;;;;;;;43.00;36.00;;;;;16.14;39.54;98899.38;5028660;28;45409;-64
2022/03/29 08:46:46;;;;;;;;;36.00;32.00;;;;;16.22;39.42;98894.41;5030544;28;45484;-64
2022/03/29 08:49:14;;;;;;;;;43.33;36.67;;;;;16.31;39.44;98888.47;5030651;28;45385;-64
2022/03/29 08:51:40;;;;;;;;;38.67;34.33;;;;;16.38;39.19;98890.63;5031575;28;45480;-66
2022/03/29 08:54:06;;;;;;;;;35.33;33.00;;;;;16.42;38.93;98892.09;5031518;28;45983;-65
2022/03/29 08:56:32;;;;;;;;;40.00;34.00;;;;;16.47;39.20;98893.59;5032788;28;45373;-64
2022/03/29 08:58:58;;;;;;;;;38.67;35.00;;;;;16.48;39.38;98890.00;5029850;28;45347;-65
2022/03/29 09:01:23;;;;;;;;;48.33;36.00;;;;;16.54;39.58;98885.13;5033451;28;45400;-65
2022/03/29 09:04:08;;;;;;;;;34.33;33.00;;;;;16.63;39.45;98873.84;5044118;28;46575;-65
2022/03/29 09:06:56;;;;;;;;;40.33;35.67;;;;;16.68;39.51;98879.72;5030780;28;45427;-65
2022/03/29 09:09:34;;;;;;;;;40.00;35.33;;;;;16.78;39.48;98881.75;5024994;28;45292;-64
2022/03/29 09:12:18;;;;;;;;;36.67;34.00;;;;;16.85;39.18;98875.91;5028102;28;45355;-65
2022/03/29 09:15:14;;;;;;;;;34.00;32.00;;;;;16.76;38.75;98875.69;5024936;28;45426;-65
2022/03/29 09:17:41;;;;;;;;;40.00;33.67;;;;;16.58;38.01;98868.00;5027755;28;45602;-65
2022/03/29 09:20:16;;;;;;;;;53.00;40.67;;;;;16.39;38.27;98865.72;5031070;28;45467;-65
2022/03/29 09:22:48;;;;;;;;;45.00;38.00;;;;;16.25;38.67;98862.31;5035892;28;45452;-65
2022/03/29 09:25:22;;;;;;;;;41.33;36.33;;;;;16.10;38.55;98871.28;5031920;28;45476;-66
2022/03/29 09:27:55;;;;;;;;;37.00;33.67;;;;;16.00;38.85;98860.41;5034039;28;45340;-65
2022/03/29 09:30:22;;;;;;;;;41.00;35.00;;;;;15.96;39.22;98864.22;5036619;28;45453;-65
2022/03/29 09:32:56;;;;;;;;;40.67;36.33;;;;;15.90;39.13;98860.19;5035505;28;45610;-65
2022/03/29 09:35:22;;;;;;;;;44.00;36.33;;;;;15.86;38.90;98852.50;5036235;28;45636;-66
2022/03/29 09:37:48;;;;;;;;;41.00;34.67;;;;;15.82;39.47;98859.81;5049714;28;45886;-65
2022/03/29 09:40:14;;;;;;;;;42.67;35.00;;;;;15.77;39.12;98845.97;5030997;28;45398;-65
2022/03/29 09:42:40;;;;;;;;;43.50;37.00;;;;;15.70;38.98;98839.38;5035083;28;45395;-65
2022/03/29 09:45:06;;;;;;;;;41.00;35.00;;;;;15.62;39.58;98837.19;5065391;28;46795;-65
2022/03/29 09:47:32;;;;;;;;;46.67;38.33;;;;;15.53;39.66;98827.16;5033558;28;45405;-65
2022/03/29 09:50:06;;;;;;;;;52.33;39.33;;;;;15.47;39.33;98826.69;5033350;28;45384;-65
2022/03/29 09:52:36;;;;;;;;;49.00;39.67;;;;;15.37;39.54;98834.41;5036721;28;45436;-65
2022/03/29 09:55:09;;;;;;;;;54.33;41.00;;;;;15.35;39.60;98828.31;5033185;28;46133;-65
2022/03/29 09:57:36;;;;;;;;;46.00;38.00;;;;;15.33;39.48;98823.09;5035486;28;45366;-65
2022/03/29 10:00:02;;;;;;;;;46.33;37.67;;;;;15.34;39.26;98803.56;5041800;28;45274;-65
2022/03/29 10:02:37;;;;;;;;;47.33;41.00;;;;;15.35;39.14;98799.97;5036149;28;45336;-65
2022/03/29 10:05:03;;;;;;;;;45.67;38.00;;;;;15.39;38.73;98799.78;5025930;28;46064;-66
2022/03/29 10:07:34;;;;;;;;;45.67;39.33;;;;;15.39;38.57;98782.03;5051291;28;45491;-65
2022/03/29 10:09:59;;;;;;;;;45.67;35.67;;;;;15.43;38.31;98782.66;5060061;28;45504;-65
2022/03/29 10:12:25;;;;;;;;;37.67;35.00;;;;;15.51;37.88;98783.88;5068027;28;45465;-66
2022/03/29 10:14:54;;;;;;;;;34.00;27.67;;;;;15.58;37.84;98787.03;5029676;28;46441;-64
2022/03/29 10:17:20;;;;;;;;;49.67;36.33;;;;;15.59;37.20;98781.59;5035169;28;45425;-65
2022/03/29 10:19:47;;;;;;;;;44.33;37.00;;;;;15.62;37.06;98769.91;5032032;28;45499;-65
2022/03/29 10:22:13;;;;;;;;;50.67;37.67;;;;;15.65;37.31;98769.72;5035394;28;45449;-65
2022/03/29 10:24:39;;;;;;;;;48.00;38.33;;;;;15.71;37.35;98748.06;5027567;28;47828;-65
2022/03/29 10:27:05;;;;;;;;;47.33;38.33;;;;;15.80;37.26;98752.72;5035061;28;45417;-65
2022/03/29 10:29:31;;;;;;;;;42.67;37.00;;;;;15.86;37.10;98747.03;5031115;28;45503;-65
2022/03/29 10:32:05;;;;;;;;;48.00;39.33;;;;;15.89;36.88;98741.50;5035008;28;45324;-65
2022/03/29 10:34:37;;;;;;;;;47.33;38.33;;;;;15.94;36.90;98742.00;5027805;28;46066;-65
2022/03/29 10:37:10;;;;;;;;;45.33;36.67;;;;;16.03;36.86;98736.09;5035950;28;45369;-64
2022/03/29 10:40:04;;;;;;;;;48.33;38.33;;;;;16.11;36.26;98727.56;5032745;28;45381;-65
2022/03/29 10:42:33;;;;;;;;;46.00;37.33;;;;;16.17;36.26;98727.16;5035358;28;45306;-65
2022/03/29 10:45:21;;;;;;;;;39.67;35.33;;;;;16.22;36.05;98724.19;5026672;28;45431;-63
2022/03/29 10:48:16;;;;;;;;;45.33;36.67;;;;;16.27;36.03;98720.22;5023999;28;45547;-65
2022/03/29 10:50:53;;;;;;;;;50.33;39.67;;;;;16.33;35.44;98718.97;5021424;28;45353;-65
2022/03/29 10:53:29;;;;;;;;;42.33;36.00;;;;;16.38;35.41;98717.69;5033834;28;46170;-65
2022/03/29 10:56:13;;;;;;;;;37.67;33.33;;;;;16.45;35.13;98696.81;5033572;28;45471;-65
2022/03/29 10:59:01;;;;;;;;;38.00;34.33;;;;;16.54;35.04;98695.31;5032032;28;45372;-65
2022/03/29 11:01:27;;;;;;;;;37.33;34.67;;;;;16.63;35.01;98682.22;5029841;28;45593;-65
2022/03/29 11:04:16;;;;;;;;;36.00;33.33;;;;;16.74;33.88;98678.81;5033899;28;45406;-65
2022/03/29 11:07:07;;;;;;;;;38.67;33.67;;;;;16.86;33.61;98685.91;5034534;28;45614;-65
2022/03/29 11:09:34;;;;;;;;;37.33;33.33;;;;;16.98;33.98;98668.16;5029336;28;45429;-65
2022/03/29 11:12:00;;;;;;;;;37.67;32.00;;;;;17.11;33.03;98668.97;5034745;28;45397;-65
2022/03/29 11:14:39;;;;;;;;;39.33;32.67;;;;;17.25;33.07;98655.50;5032041;28;45377;-65
2022/03/29 11:17:04;;;;;;;;;39.00;33.00;;;;;17.40;32.71;98656.16;5025150;28;46209;-65
2022/03/29 11:19:48;;;;;;;;;37.33;30.33;;;;;17.58;32.88;98659.25;5031606;28;45222;-66
2022/03/29 11:22:29;;;;;;;;;38.67;33.67;;;;;17.74;31.92;98641.13;5028466;28;45397;-65
2022/03/29 11:25:06;;;;;;;;;31.67;29.00;;;;;17.81;31.92;98637.00;5028586;28;45358;-65
2022/03/29 11:27:35;;;;;;;;;36.67;32.33;;;;;17.90;31.99;98636.31;5034258;28;45372;-65